createdAt,value
2022-11-07T00:00:37.943Z,2.13
2022-11-07T00:03:11.679Z,2.05
2022-11-07T00:05:40.997Z,2.22
2022-11-07T00:08:08.462Z,2.13
2022-11-07T00:10:44.233Z,2.40
2022-11-07T00:13:24.311Z,2.10
2022-11-07T00:15:51.660Z,2.08
2022-11-07T00:18:19.038Z,2.08
2022-11-07T00:21:19.049Z,1.98
2022-11-07T00:23:46.453Z,2.38
2022-11-07T00:26:15.059Z,2.08
2022-11-07T00:28:44.899Z,2.00
2022-11-07T00:31:13.659Z,2.10
2022-11-07T00:33:41.977Z,2.20
2022-11-07T00:36:29.299Z,1.90
2022-11-07T00:38:56.776Z,1.58
2022-11-07T00:41:29.257Z,1.92
2022-11-07T00:43:56.833Z,2.30
2022-11-07T00:46:24.622Z,1.65
2022-11-07T00:49:24.917Z,1.90
2022-11-07T00:51:52.304Z,1.60
2022-11-07T00:54:19.741Z,1.60
2022-11-07T00:56:51.185Z,1.52
2022-11-07T00:59:18.672Z,1.50
2022-11-07T01:01:57.480Z,1.50
2022-11-07T01:04:48.817Z,1.60
2022-11-07T01:07:16.314Z,1.50
2022-11-07T01:09:43.681Z,1.63
2022-11-07T01:12:12.198Z,1.33
2022-11-07T01:14:39.613Z,1.20
2022-11-07T01:17:07.123Z,1.58
2022-11-07T01:19:34.558Z,1.40
2022-11-07T01:22:16.447Z,1.35
2022-11-07T01:24:52.885Z,1.27
2022-11-07T01:27:22.349Z,1.70
2022-11-07T01:29:49.747Z,1.80
2022-11-07T01:32:22.964Z,1.60
2022-11-07T01:34:58.203Z,1.67
2022-11-07T01:37:25.643Z,1.30
2022-11-07T01:39:52.994Z,1.30
2022-11-07T01:42:29.345Z,1.55
2022-11-07T01:44:58.834Z,1.35
2022-11-07T01:47:31.763Z,1.30
2022-11-07T01:50:01.401Z,1.33
2022-11-07T01:53:00.009Z,1.20
2022-11-07T01:55:33.477Z,1.20
2022-11-07T01:58:04.826Z,1.10
2022-11-07T02:00:37.512Z,0.93
2022-11-07T02:03:09.949Z,1.20
2022-11-07T02:05:56.602Z,1.30
2022-11-07T02:08:24.348Z,1.02
2022-11-07T02:10:57.313Z,1.38
2022-11-07T02:13:30.140Z,1.40
2022-11-07T02:16:00.294Z,1.20
2022-11-07T02:18:34.927Z,1.13
2022-11-07T02:21:10.139Z,1.25
2022-11-07T02:24:12.968Z,1.23
2022-11-07T02:26:40.992Z,1.08
2022-11-07T02:29:13.699Z,1.25
2022-11-07T02:31:41.212Z,1.20
2022-11-07T02:34:08.644Z,1.20
2022-11-07T02:36:36.165Z,1.25
2022-11-07T02:39:03.654Z,0.98
2022-11-07T02:41:37.374Z,1.08
2022-11-07T02:44:09.008Z,1.10
2022-11-07T02:46:37.086Z,1.05
2022-11-07T02:49:06.594Z,1.02
2022-11-07T02:51:34.039Z,1.10
2022-11-07T02:54:01.582Z,0.98
2022-11-07T02:56:31.100Z,1.05
2022-11-07T02:58:58.451Z,1.15
2022-11-07T03:01:26.001Z,1.08
2022-11-07T03:04:00.833Z,1.00
2022-11-07T03:06:28.209Z,1.42
2022-11-07T03:08:57.799Z,1.00
2022-11-07T03:11:25.251Z,1.10
2022-11-07T03:13:55.128Z,1.10
2022-11-07T03:16:23.675Z,1.08
2022-11-07T03:18:51.056Z,1.15
2022-11-07T03:21:19.797Z,1.00
2022-11-07T03:23:47.236Z,1.08
2022-11-07T03:26:16.672Z,1.00
2022-11-07T03:28:44.042Z,1.00
2022-11-07T03:31:17.638Z,1.30
2022-11-07T03:33:44.993Z,1.17
2022-11-07T03:36:12.540Z,1.25
2022-11-07T03:38:39.944Z,1.33
2022-11-07T03:41:07.349Z,1.35
2022-11-07T03:43:36.987Z,1.30
2022-11-07T03:46:04.350Z,1.05
2022-11-07T03:48:35.664Z,1.10
2022-11-07T03:51:03.159Z,1.10
2022-11-07T03:53:30.765Z,1.20
2022-11-07T03:55:58.420Z,1.00
2022-11-07T03:58:27.936Z,1.15
2022-11-07T04:00:55.346Z,1.05
2022-11-07T04:03:22.738Z,1.02
2022-11-07T04:06:11.887Z,1.10
2022-11-07T04:08:39.326Z,1.20
2022-11-07T04:11:06.783Z,1.05
2022-11-07T04:14:26.388Z,1.10
2022-11-07T04:17:13.421Z,1.10
2022-11-07T04:19:40.865Z,1.00
2022-11-07T04:22:08.337Z,0.90
2022-11-07T04:24:35.733Z,1.30
2022-11-07T04:27:22.861Z,1.33
2022-11-07T04:29:50.254Z,1.70
2022-11-07T04:32:17.654Z,1.25
2022-11-07T04:34:47.192Z,1.50
2022-11-07T04:37:14.519Z,1.60
2022-11-07T04:39:41.859Z,1.15
2022-11-07T04:42:13.444Z,1.58
2022-11-07T04:44:40.872Z,1.50
2022-11-07T04:47:09.440Z,1.13
2022-11-07T04:49:36.865Z,1.30
2022-11-07T04:52:04.474Z,1.50
2022-11-07T04:54:31.906Z,1.35
2022-11-07T04:56:59.261Z,1.45
2022-11-07T04:59:29.917Z,1.40
2022-11-07T05:01:57.415Z,1.50
2022-11-07T05:04:25.174Z,2.00
2022-11-07T05:06:52.585Z,1.52
2022-11-07T05:09:22.146Z,1.50
2022-11-07T05:11:49.551Z,1.58
2022-11-07T05:14:17.063Z,1.33
2022-11-07T05:16:44.812Z,1.40
2022-11-07T05:19:19.367Z,1.42
2022-11-07T05:21:47.173Z,1.55
2022-11-07T05:24:15.669Z,1.40
2022-11-07T05:26:43.771Z,1.38
2022-11-07T05:29:13.410Z,1.40
2022-11-07T05:31:40.764Z,1.38
2022-11-07T05:34:13.516Z,1.10
2022-11-07T05:36:41.942Z,1.40
2022-11-07T05:39:09.516Z,1.08
2022-11-07T05:41:36.870Z,1.38
2022-11-07T05:44:04.471Z,1.40
2022-11-07T05:46:31.849Z,1.00
2022-11-07T05:49:09.524Z,1.52
2022-11-07T05:51:36.936Z,1.20
2022-11-07T05:54:04.419Z,1.00
2022-11-07T05:56:45.342Z,1.35
2022-11-07T05:59:12.846Z,0.80
2022-11-07T06:01:41.503Z,1.10
2022-11-07T06:04:09.076Z,1.40
2022-11-07T06:06:36.544Z,0.93
2022-11-07T06:09:05.023Z,1.13
2022-11-07T06:11:32.966Z,1.25
2022-11-07T06:14:00.370Z,1.30
2022-11-07T06:16:29.859Z,0.98
2022-11-07T06:18:57.223Z,1.15
2022-11-07T06:21:24.608Z,1.05
2022-11-07T06:23:53.121Z,1.00
2022-11-07T06:26:20.614Z,1.65
2022-11-07T06:28:49.014Z,1.08
2022-11-07T06:31:16.505Z,1.23
2022-11-07T06:33:51.384Z,1.23
2022-11-07T06:36:19.163Z,1.48
2022-11-07T06:38:51.648Z,1.52
2022-11-07T06:41:31.242Z,1.50
2022-11-07T06:43:58.680Z,1.40
2022-11-07T06:46:32.298Z,1.50
2022-11-07T06:48:59.701Z,1.60
2022-11-07T06:51:42.814Z,1.50
2022-11-07T06:54:14.265Z,1.60
2022-11-07T06:56:49.966Z,1.70
2022-11-07T06:59:17.317Z,1.92
2022-11-07T07:01:50.740Z,2.67
2022-11-07T07:04:18.138Z,2.35
2022-11-07T07:06:46.027Z,2.05
2022-11-07T07:09:13.498Z,2.20
2022-11-07T07:11:48.331Z,1.90
2022-11-07T07:14:15.756Z,2.20
2022-11-07T07:16:43.153Z,2.25
2022-11-07T07:19:12.370Z,2.47
2022-11-07T07:21:39.849Z,3.10
2022-11-07T07:24:07.726Z,3.22
2022-11-07T07:26:37.160Z,3.72
2022-11-07T07:29:04.506Z,2.90
2022-11-07T07:31:32.361Z,2.75
2022-11-07T07:34:00.095Z,2.75
2022-11-07T07:36:27.657Z,2.47
2022-11-07T07:38:56.092Z,2.38
2022-11-07T07:41:23.481Z,2.08
2022-11-07T07:43:51.031Z,2.38
2022-11-07T07:46:22.831Z,2.30
2022-11-07T07:48:50.200Z,2.20
2022-11-07T07:51:19.785Z,1.88
2022-11-07T07:53:47.162Z,2.03
2022-11-07T07:56:17.679Z,1.92
2022-11-07T07:58:45.900Z,2.00
2022-11-07T08:01:13.363Z,1.77
2022-11-07T08:04:00.248Z,1.80
2022-11-07T08:06:30.525Z,1.83
2022-11-07T08:08:58.134Z,1.83
2022-11-07T08:11:29.675Z,1.60
2022-11-07T08:14:08.401Z,1.90
2022-11-07T08:16:36.197Z,1.75
2022-11-07T08:19:03.561Z,1.98
2022-11-07T08:21:36.637Z,2.53
2022-11-07T08:24:04.272Z,2.30
2022-11-07T08:26:34.333Z,1.98
2022-11-07T08:29:01.770Z,1.88
2022-11-07T08:31:29.388Z,2.42
2022-11-07T08:34:00.677Z,3.17
2022-11-07T08:36:28.539Z,3.45
2022-11-07T08:38:56.399Z,4.93
2022-11-07T08:41:24.889Z,4.65
2022-11-07T08:43:52.288Z,4.40
2022-11-07T08:46:19.912Z,3.38
2022-11-07T08:48:47.299Z,6.57
2022-11-07T08:51:14.674Z,6.85
2022-11-07T08:53:42.121Z,6.15
2022-11-07T08:56:10.203Z,5.60
2022-11-07T08:58:38.174Z,7.00
2022-11-07T09:01:10.813Z,5.85
2022-11-07T09:03:46.158Z,5.28
2022-11-07T09:06:16.762Z,5.35
2022-11-07T09:08:44.702Z,5.00
2022-11-07T09:11:15.538Z,4.30
2022-11-07T09:13:43.178Z,4.18
2022-11-07T09:16:10.773Z,4.10
2022-11-07T09:18:38.693Z,4.28
2022-11-07T09:21:06.226Z,4.15
2022-11-07T09:23:33.728Z,4.13
2022-11-07T09:26:01.387Z,3.72
2022-11-07T09:28:30.938Z,3.78
2022-11-07T09:30:59.159Z,3.55
2022-11-07T09:33:26.904Z,3.97
2022-11-07T09:35:54.829Z,3.30
2022-11-07T09:38:22.453Z,3.28
2022-11-07T09:41:08.008Z,3.60
2022-11-07T09:43:57.512Z,3.40
2022-11-07T09:46:24.842Z,4.05
2022-11-07T09:48:59.784Z,4.13
2022-11-07T09:51:39.003Z,4.13
2022-11-07T09:54:20.151Z,3.90
2022-11-07T09:56:47.900Z,4.45
2022-11-07T09:59:28.627Z,4.63
2022-11-07T10:01:56.203Z,3.90
2022-11-07T10:04:26.191Z,4.07
2022-11-07T10:07:02.057Z,4.30
2022-11-07T10:09:35.000Z,4.07
2022-11-07T10:12:30.543Z,3.72
2022-11-07T10:14:58.962Z,3.25
2022-11-07T10:17:54.025Z,3.60
2022-11-07T10:20:41.721Z,4.00
2022-11-07T10:23:50.784Z,3.42
2022-11-07T10:26:20.782Z,3.42
2022-11-07T10:29:11.216Z,3.58
2022-11-07T10:31:46.407Z,3.58
2022-11-07T10:34:38.434Z,4.07
2022-11-07T10:37:06.217Z,3.40
2022-11-07T10:39:34.184Z,3.72
2022-11-07T10:42:06.921Z,3.90
2022-11-07T10:44:35.528Z,3.65
2022-11-07T10:47:03.608Z,4.05
2022-11-07T10:49:32.576Z,4.13
2022-11-07T10:52:15.255Z,4.00
2022-11-07T10:54:44.883Z,4.35
2022-11-07T10:57:17.158Z,3.70
2022-11-07T10:59:53.744Z,3.70
2022-11-07T11:02:27.209Z,2.78
2022-11-07T11:05:00.510Z,3.58
2022-11-07T11:10:21.885Z,4.10
2022-11-07T11:12:49.550Z,4.07
2022-11-07T11:15:20.454Z,4.22
2022-11-07T11:18:07.589Z,4.78
2022-11-07T11:20:38.417Z,4.60
2022-11-07T11:23:13.636Z,4.90
2022-11-07T11:25:46.075Z,3.75
2022-11-07T11:28:20.734Z,3.85
2022-11-07T11:30:51.391Z,3.47
2022-11-07T11:33:22.859Z,3.78
2022-11-07T11:35:55.971Z,3.28
2022-11-07T11:38:37.504Z,3.28
2022-11-07T11:41:36.263Z,3.13
2022-11-07T11:44:44.325Z,3.22
2022-11-07T11:47:40.409Z,4.00
2022-11-07T11:50:21.242Z,3.60
2022-11-07T11:52:48.826Z,3.97
2022-11-07T11:55:18.195Z,3.70
2022-11-07T11:58:06.889Z,4.13
2022-11-07T12:00:40.512Z,4.38
2022-11-07T12:03:49.436Z,4.25
2022-11-07T12:06:21.565Z,4.05
2022-11-07T12:09:17.017Z,4.68
2022-11-07T12:12:15.165Z,5.80
2022-11-07T12:15:13.113Z,5.32
2022-11-07T12:17:55.861Z,4.72
2022-11-07T12:20:50.295Z,4.97
2022-11-07T12:23:38.940Z,4.38
2022-11-07T12:26:09.949Z,4.18
2022-11-07T12:29:04.159Z,3.90
2022-11-07T12:31:33.723Z,3.65
2022-11-07T12:34:23.856Z,4.47
2022-11-07T12:37:07.554Z,4.78
2022-11-07T12:39:59.323Z,4.63
2022-11-07T12:42:47.846Z,4.60
2022-11-07T12:45:26.542Z,4.80
2022-11-07T12:48:17.309Z,4.38
2022-11-07T12:50:56.844Z,3.85
2022-11-07T12:53:52.245Z,4.82
2022-11-07T12:56:22.275Z,4.22
2022-11-07T12:58:51.832Z,4.22
2022-11-07T13:01:28.154Z,3.92
2022-11-07T13:04:16.410Z,4.15
2022-11-07T13:06:46.037Z,4.88
2022-11-07T13:09:30.606Z,4.72
2022-11-07T13:12:16.865Z,4.70
2022-11-07T13:14:45.912Z,4.40
2022-11-07T13:17:23.610Z,5.88
2022-11-07T13:20:00.242Z,6.22
2022-11-07T13:22:40.357Z,6.50
2022-11-07T13:25:17.768Z,6.53
2022-11-07T13:27:59.686Z,6.15
2022-11-07T13:30:30.148Z,5.60
2022-11-07T13:32:59.639Z,5.45
2022-11-07T13:35:29.971Z,5.32
2022-11-07T13:38:08.813Z,4.85
2022-11-07T13:40:39.645Z,5.68
2022-11-07T13:43:07.098Z,4.95
2022-11-07T13:45:43.346Z,4.97
2022-11-07T13:48:17.084Z,5.05
2022-11-07T13:50:49.990Z,4.50
2022-11-07T13:56:01.229Z,5.35
2022-11-07T13:58:30.316Z,4.78
2022-11-07T14:01:18.163Z,4.35
2022-11-07T14:03:45.957Z,4.90
2022-11-07T14:06:14.860Z,4.53
2022-11-07T14:08:46.093Z,4.82
2022-11-07T14:11:25.066Z,4.18
2022-11-07T14:13:54.364Z,3.90
2022-11-07T14:16:25.393Z,4.25
2022-11-07T14:19:14.791Z,3.80
2022-11-07T14:21:45.135Z,3.67
2022-11-07T14:24:26.044Z,3.60
2022-11-07T14:27:07.336Z,3.65
2022-11-07T14:29:34.950Z,4.18
2022-11-07T14:32:06.165Z,4.55
2022-11-07T14:34:43.952Z,5.00
2022-11-07T14:37:15.028Z,4.38
2022-11-07T14:39:44.298Z,4.15
2022-11-07T14:42:22.217Z,4.18
2022-11-07T14:44:54.874Z,4.38
2022-11-07T14:47:32.393Z,4.80
2022-11-07T14:50:01.990Z,4.25
2022-11-07T14:52:34.965Z,4.70
2022-11-07T14:55:11.675Z,4.40
2022-11-07T14:57:40.111Z,4.63
2022-11-07T15:00:16.820Z,3.90
2022-11-07T15:02:46.686Z,4.32
2022-11-07T15:05:38.518Z,4.28
2022-11-07T15:08:05.951Z,3.58
2022-11-07T15:10:38.945Z,3.75
2022-11-07T15:13:24.477Z,3.80
2022-11-07T15:16:16.628Z,3.60
2022-11-07T15:18:46.593Z,3.03
2022-11-07T15:21:26.608Z,3.58
2022-11-07T15:23:54.290Z,2.95
2022-11-07T15:26:24.294Z,3.00
2022-11-07T15:28:53.794Z,2.70
2022-11-07T15:31:25.324Z,2.88
2022-11-07T15:33:54.004Z,2.40
2022-11-07T15:36:21.749Z,2.40
2022-11-07T15:38:50.712Z,2.22
2022-11-07T15:41:19.100Z,2.30
2022-11-07T15:43:46.706Z,2.40
2022-11-07T15:46:28.934Z,2.13
2022-11-07T15:48:56.869Z,2.53
2022-11-07T15:51:24.668Z,2.30
2022-11-07T15:53:52.051Z,1.95
2022-11-07T15:56:20.862Z,2.40
2022-11-07T15:58:48.517Z,2.15
2022-11-07T16:01:17.331Z,2.05
2022-11-07T16:03:44.812Z,1.83
2022-11-07T16:06:31.115Z,1.90
2022-11-07T16:08:58.752Z,2.10
2022-11-07T16:11:26.369Z,2.20
2022-11-07T16:14:14.816Z,1.90
2022-11-07T16:16:42.787Z,2.33
2022-11-07T16:19:18.260Z,2.28
2022-11-07T16:21:47.979Z,2.20
2022-11-07T16:24:16.577Z,2.33
2022-11-07T16:26:46.131Z,2.58
2022-11-07T16:29:14.452Z,2.80
2022-11-07T16:31:42.264Z,2.83
2022-11-07T16:34:12.895Z,3.10
2022-11-07T16:36:40.545Z,2.97
2022-11-07T16:39:19.249Z,3.30
2022-11-07T16:41:47.943Z,3.10
2022-11-07T16:44:15.487Z,3.38
2022-11-07T16:46:43.074Z,3.42
2022-11-07T16:49:31.239Z,3.05
2022-11-07T16:51:59.622Z,3.38
2022-11-07T16:54:28.121Z,3.58
2022-11-07T16:56:56.591Z,3.00
2022-11-07T16:59:24.558Z,2.92
2022-11-07T17:01:52.484Z,2.78
2022-11-07T17:04:20.166Z,2.75
2022-11-07T17:06:47.781Z,2.70
2022-11-07T17:09:20.561Z,2.47
2022-11-07T17:11:48.008Z,2.92
2022-11-07T17:14:15.477Z,2.67
2022-11-07T17:16:44.561Z,2.60
2022-11-07T17:19:13.199Z,3.50
2022-11-07T17:21:46.268Z,3.53
2022-11-07T17:24:13.954Z,3.75
2022-11-07T17:26:41.464Z,3.58
2022-11-07T17:29:14.994Z,4.50
2022-11-07T17:31:43.084Z,4.35
2022-11-07T17:34:10.717Z,4.63
2022-11-07T17:36:43.123Z,4.30
2022-11-07T17:39:16.321Z,4.15
2022-11-07T17:41:45.309Z,3.72
2022-11-07T17:44:13.310Z,3.60
2022-11-07T17:46:43.305Z,3.30
2022-11-07T17:49:13.435Z,3.22
2022-11-07T17:51:42.415Z,3.00
2022-11-07T17:54:11.694Z,2.92
2022-11-07T17:56:39.846Z,3.05
2022-11-07T17:59:11.141Z,3.08
2022-11-07T18:01:40.736Z,3.33
2022-11-07T18:04:10.061Z,2.75
2022-11-07T18:06:39.431Z,2.58
2022-11-07T18:09:08.934Z,2.83
2022-11-07T18:11:37.473Z,2.58
2022-11-07T18:14:05.071Z,2.60
2022-11-07T18:16:34.781Z,2.80
2022-11-07T18:19:02.418Z,2.55
2022-11-07T18:21:30.173Z,2.67
2022-11-07T18:23:58.208Z,2.70
2022-11-07T18:26:31.404Z,2.33
2022-11-07T18:29:04.179Z,2.55
2022-11-07T18:31:31.858Z,2.45
2022-11-07T18:34:00.972Z,2.28
2022-11-07T18:36:30.775Z,2.70
2022-11-07T18:39:03.851Z,2.17
2022-11-07T18:41:31.412Z,2.20
2022-11-07T18:44:04.238Z,2.25
2022-11-07T18:46:33.826Z,2.28
2022-11-07T18:49:02.828Z,2.53
2022-11-07T18:51:30.277Z,2.10
2022-11-07T18:54:00.928Z,2.35
2022-11-07T18:56:28.355Z,2.42
2022-11-07T18:58:57.295Z,2.45
2022-11-07T19:01:30.914Z,2.03
2022-11-07T19:04:00.705Z,2.13
2022-11-07T19:06:29.786Z,2.08
2022-11-07T19:08:57.527Z,2.22
2022-11-07T19:11:29.470Z,2.55
2022-11-07T19:14:00.491Z,2.40
2022-11-07T19:16:28.641Z,2.30
2022-11-07T19:18:58.179Z,2.10
2022-11-07T19:21:25.664Z,2.03
2022-11-07T19:23:53.254Z,2.70
2022-11-07T19:26:20.695Z,2.40
2022-11-07T19:28:48.461Z,2.58
2022-11-07T19:31:16.265Z,2.08
2022-11-07T19:33:45.300Z,2.25
2022-11-07T19:36:15.732Z,2.35
2022-11-07T19:38:44.132Z,2.30
2022-11-07T19:41:12.760Z,2.50
2022-11-07T19:43:42.599Z,2.10
2022-11-07T19:46:13.615Z,2.53
2022-11-07T19:48:41.078Z,2.13
2022-11-07T19:51:19.926Z,2.30
2022-11-07T19:53:57.119Z,2.35
2022-11-07T19:56:26.309Z,2.22
2022-11-07T19:58:54.562Z,2.22
2022-11-07T20:01:25.355Z,2.20
2022-11-07T20:03:54.072Z,2.30
2022-11-07T20:06:35.516Z,2.58
2022-11-07T20:09:06.338Z,2.42
2022-11-07T20:11:33.877Z,2.17
2022-11-07T20:14:03.707Z,2.55
2022-11-07T20:16:36.877Z,2.30
2022-11-07T20:19:04.811Z,2.63
2022-11-07T20:21:33.834Z,2.30
2022-11-07T20:24:01.410Z,2.25
2022-11-07T20:26:32.946Z,2.40
2022-11-07T20:29:00.440Z,2.38
2022-11-07T20:31:30.568Z,2.22
2022-11-07T20:33:59.644Z,2.47
2022-11-07T20:36:27.581Z,2.40
2022-11-07T20:38:56.390Z,2.20
2022-11-07T20:41:24.553Z,2.05
2022-11-07T20:43:56.832Z,2.47
2022-11-07T20:46:24.349Z,2.42
2022-11-07T20:48:52.197Z,1.67
2022-11-07T20:51:22.118Z,1.90
2022-11-07T20:53:50.590Z,2.10
2022-11-07T20:56:23.188Z,2.17
2022-11-07T20:58:51.167Z,2.28
2022-11-07T21:01:24.812Z,2.30
2022-11-07T21:03:52.832Z,2.42
2022-11-07T21:06:20.303Z,2.78
2022-11-07T21:08:48.672Z,3.20
2022-11-07T21:11:16.778Z,3.47
2022-11-07T21:13:51.182Z,3.10
2022-11-07T21:16:23.599Z,3.47
2022-11-07T21:18:52.282Z,2.90
2022-11-07T21:21:24.907Z,3.05
2022-11-07T21:23:52.480Z,2.72
2022-11-07T21:26:26.995Z,3.13
2022-11-07T21:28:54.586Z,2.58
2022-11-07T21:31:27.107Z,2.92
2022-11-07T21:33:55.811Z,2.80
2022-11-07T21:36:28.727Z,2.83
2022-11-07T21:38:57.343Z,2.50
2022-11-07T21:41:25.341Z,2.72
2022-11-07T21:43:54.091Z,2.55
2022-11-07T21:46:30.468Z,2.58
2022-11-07T21:48:59.201Z,2.80
2022-11-07T21:51:28.895Z,2.60
2022-11-07T21:53:57.060Z,2.85
2022-11-07T21:56:28.380Z,3.03
2022-11-07T21:59:01.245Z,2.92
2022-11-07T22:01:29.913Z,2.70
2022-11-07T22:04:07.657Z,2.88
2022-11-07T22:06:38.642Z,2.80
2022-11-07T22:09:09.633Z,2.90
2022-11-07T22:11:37.175Z,3.15
2022-11-07T22:14:05.236Z,2.88
2022-11-07T22:16:36.246Z,3.10
2022-11-07T22:19:05.256Z,3.10
2022-11-07T22:21:39.157Z,3.20
2022-11-07T22:24:06.852Z,2.72
2022-11-07T22:26:35.631Z,3.20
2022-11-07T22:29:03.158Z,2.70
2022-11-07T22:31:42.765Z,2.85
2022-11-07T22:34:10.299Z,2.88
2022-11-07T22:36:37.981Z,3.25
2022-11-07T22:39:10.382Z,3.28
2022-11-07T22:41:37.735Z,3.10
2022-11-07T22:44:05.181Z,2.97
2022-11-07T22:46:40.794Z,3.60
2022-11-07T22:49:08.126Z,3.15
2022-11-07T22:51:50.630Z,3.20
2022-11-07T22:54:18.058Z,2.97
2022-11-07T22:56:45.459Z,3.08
2022-11-07T22:59:19.103Z,3.55
2022-11-07T23:01:46.603Z,3.95
2022-11-07T23:04:16.219Z,3.95
2022-11-07T23:06:43.966Z,4.38
2022-11-07T23:09:16.212Z,4.20
2022-11-07T23:11:46.996Z,4.50
2022-11-07T23:14:20.894Z,4.65
2022-11-07T23:16:50.829Z,3.85
2022-11-07T23:19:21.074Z,3.63
2022-11-07T23:21:52.504Z,3.38
2022-11-07T23:24:20.806Z,3.92
2022-11-07T23:26:49.416Z,3.30
2022-11-07T23:29:19.951Z,3.90
2022-11-07T23:31:52.801Z,2.92
2022-11-07T23:34:21.375Z,2.92
2022-11-07T23:36:52.728Z,3.05
2022-11-07T23:39:26.385Z,2.58
2022-11-07T23:41:54.107Z,2.88
2022-11-07T23:44:21.745Z,2.90
2022-11-07T23:47:15.901Z,2.75
2022-11-07T23:50:06.128Z,2.60
2022-11-07T23:52:33.645Z,2.40
2022-11-07T23:55:19.597Z,2.50
2022-11-07T23:58:08.840Z,2.10
